sensor_id;sensor_type;location;lat;lon;timestamp;pressure;altitude;pressure_sealevel;temperature;humidity
15646;BME280;7922;43.622;1.476;2023-03-22T00:02:06;100233.38;;;7.29;89.76
15646;BME280;7922;43.622;1.476;2023-03-22T00:04:32;100168.63;;;6.86;90.37
15646;BME280;7922;43.622;1.476;2023-03-22T00:06:57;100243.19;;;7.24;90.06
15646;BME280;7922;43.622;1.476;2023-03-22T00:09:22;100166.19;;;6.77;90.23
15646;BME280;7922;43.622;1.476;2023-03-22T00:11:47;100245.97;;;7.18;91.05
15646;BME280;7922;43.622;1.476;2023-03-22T00:14:13;100202.59;;;6.95;90.93
15646;BME280;7922;43.622;1.476;2023-03-22T00:16:38;100231.38;;;7.03;91.08
15646;BME280;7922;43.622;1.476;2023-03-22T00:19:03;100151.88;;;6.51;90.98
15646;BME280;7922;43.622;1.476;2023-03-22T00:21:28;100153.47;;;6.57;91.40
15646;BME280;7922;43.622;1.476;2023-03-22T00:23:54;100145.81;;;6.48;91.27
15646;BME280;7922;43.622;1.476;2023-03-22T00:26:19;100213.38;;;6.86;91.84
15646;BME280;7922;43.622;1.476;2023-03-22T00:28:44;100178.59;;;6.72;91.05
15646;BME280;7922;43.622;1.476;2023-03-22T00:31:09;100136.13;;;6.50;90.53
15646;BME280;7922;43.622;1.476;2023-03-22T00:33:35;100144.88;;;6.50;90.13
15646;BME280;7922;43.622;1.476;2023-03-22T00:36:03;100158.84;;;6.54;91.11
15646;BME280;7922;43.622;1.476;2023-03-22T00:38:29;100135.34;;;6.46;91.61
15646;BME280;7922;43.622;1.476;2023-03-22T00:40:55;100193.44;;;6.74;91.06
15646;BME280;7922;43.622;1.476;2023-03-22T00:43:20;100136.50;;;6.33;91.73
15646;BME280;7922;43.622;1.476;2023-03-22T00:45:45;100153.78;;;6.45;91.63
15646;BME280;7922;43.622;1.476;2023-03-22T00:48:10;100189.28;;;6.64;91.29
15646;BME280;7922;43.622;1.476;2023-03-22T00:50:39;100165.03;;;6.51;91.40
15646;BME280;7922;43.622;1.476;2023-03-22T00:53:04;100162.44;;;6.50;91.42
15646;BME280;7922;43.622;1.476;2023-03-22T00:55:30;100120.16;;;6.19;92.14
15646;BME280;7922;43.622;1.476;2023-03-22T00:57:55;100194.47;;;6.67;91.87
15646;BME280;7922;43.622;1.476;2023-03-22T01:00:21;100078.50;;;6.00;91.86
15646;BME280;7922;43.622;1.476;2023-03-22T01:02:46;100123.47;;;6.27;91.76
15646;BME280;7922;43.622;1.476;2023-03-22T01:05:11;100089.59;;;6.15;92.33
15646;BME280;7922;43.622;1.476;2023-03-22T01:07:37;100118.03;;;6.36;91.96
15646;BME280;7922;43.622;1.476;2023-03-22T01:10:04;100067.22;;;5.95;92.53
15646;BME280;7922;43.622;1.476;2023-03-22T01:12:29;100088.00;;;6.06;92.23
15646;BME280;7922;43.622;1.476;2023-03-22T01:14:54;100071.59;;;5.96;92.46
15646;BME280;7922;43.622;1.476;2023-03-22T01:17:20;100080.22;;;6.01;91.49
15646;BME280;7922;43.622;1.476;2023-03-22T01:19:45;100065.53;;;5.93;91.53
15646;BME280;7922;43.622;1.476;2023-03-22T01:22:10;100120.09;;;6.22;92.11
15646;BME280;7922;43.622;1.476;2023-03-22T01:24:36;100148.56;;;6.43;92.22
15646;BME280;7922;43.622;1.476;2023-03-22T01:27:01;100053.44;;;5.83;92.08
15646;BME280;7922;43.622;1.476;2023-03-22T01:29:26;100122.75;;;6.20;92.47
15646;BME280;7922;43.622;1.476;2023-03-22T01:31:51;100065.66;;;5.85;91.78
15646;BME280;7922;43.622;1.476;2023-03-22T01:34:17;100095.09;;;6.02;92.32
15646;BME280;7922;43.622;1.476;2023-03-22T01:36:43;100107.31;;;6.07;92.45
15646;BME280;7922;43.622;1.476;2023-03-22T01:39:08;100142.06;;;6.21;91.86
15646;BME280;7922;43.622;1.476;2023-03-22T01:41:35;100101.75;;;6.19;92.71
15646;BME280;7922;43.622;1.476;2023-03-22T01:46:33;100031.69;;;5.77;93.13
15646;BME280;7922;43.622;1.476;2023-03-22T01:49:00;100031.81;;;5.71;93.36
15646;BME280;7922;43.622;1.476;2023-03-22T01:51:27;100066.38;;;5.92;93.39
15646;BME280;7922;43.622;1.476;2023-03-22T01:54:04;100090.81;;;5.98;93.19
15646;BME280;7922;43.622;1.476;2023-03-22T01:56:34;100097.94;;;5.93;92.75
15646;BME280;7922;43.622;1.476;2023-03-22T01:59:00;100041.56;;;5.65;93.36
15646;BME280;7922;43.622;1.476;2023-03-22T02:01:26;100079.75;;;5.83;92.90
15646;BME280;7922;43.622;1.476;2023-03-22T02:03:56;100024.41;;;5.48;93.22
15646;BME280;7922;43.622;1.476;2023-03-22T02:06:23;100095.31;;;5.93;93.28
15646;BME280;7922;43.622;1.476;2023-03-22T02:08:49;100088.31;;;5.91;93.05
15646;BME280;7922;43.622;1.476;2023-03-22T02:11:17;100046.03;;;5.61;93.11
15646;BME280;7922;43.622;1.476;2023-03-22T02:14:14;100098.06;;;5.86;93.72
15646;BME280;7922;43.622;1.476;2023-03-22T02:16:47;100103.22;;;5.90;93.56
15646;BME280;7922;43.622;1.476;2023-03-22T02:22:36;100076.47;;;5.71;93.53
15646;BME280;7922;43.622;1.476;2023-03-22T02:31:35;100085.25;;;5.70;93.84
15646;BME280;7922;43.622;1.476;2023-03-22T02:46:03;100069.94;;;5.49;93.36
15646;BME280;7922;43.622;1.476;2023-03-22T02:48:48;100016.34;;;5.16;93.79
15646;BME280;7922;43.622;1.476;2023-03-22T02:51:25;100064.00;;;5.39;93.71
15646;BME280;7922;43.622;1.476;2023-03-22T02:54:08;100041.44;;;5.29;93.71
15646;BME280;7922;43.622;1.476;2023-03-22T02:56:52;100045.03;;;5.25;93.90
15646;BME280;7922;43.622;1.476;2023-03-22T02:59:20;100051.13;;;5.25;93.52
15646;BME280;7922;43.622;1.476;2023-03-22T03:01:50;99978.53;;;4.78;93.64
15646;BME280;7922;43.622;1.476;2023-03-22T03:04:24;99981.94;;;4.85;93.42
15646;BME280;7922;43.622;1.476;2023-03-22T03:06:53;99997.56;;;4.89;93.68
15646;BME280;7922;43.622;1.476;2023-03-22T03:09:19;100055.72;;;5.16;93.93
15646;BME280;7922;43.622;1.476;2023-03-22T03:11:49;100008.22;;;4.83;95.00
15646;BME280;7922;43.622;1.476;2023-03-22T03:14:23;100048.00;;;5.06;94.46
15646;BME280;7922;43.622;1.476;2023-03-22T03:19:29;100076.38;;;5.34;93.59
15646;BME280;7922;43.622;1.476;2023-03-22T03:22:01;100073.84;;;5.28;93.96
15646;BME280;7922;43.622;1.476;2023-03-22T03:24:36;100032.34;;;5.02;93.89
15646;BME280;7922;43.622;1.476;2023-03-22T03:29:41;100051.28;;;5.18;93.57
15646;BME280;7922;43.622;1.476;2023-03-22T03:34:54;100014.78;;;5.04;93.26
15646;BME280;7922;43.622;1.476;2023-03-22T03:37:37;99984.72;;;4.75;93.11
15646;BME280;7922;43.622;1.476;2023-03-22T03:40:09;99992.63;;;4.74;93.58
15646;BME280;7922;43.622;1.476;2023-03-22T03:42:42;99995.28;;;4.71;93.61
15646;BME280;7922;43.622;1.476;2023-03-22T03:45:10;100023.97;;;4.81;93.98
15646;BME280;7922;43.622;1.476;2023-03-22T03:47:36;100033.47;;;4.89;93.79
15646;BME280;7922;43.622;1.476;2023-03-22T03:50:03;100024.78;;;4.85;94.19
15646;BME280;7922;43.622;1.476;2023-03-22T03:52:28;100023.91;;;4.85;94.40
15646;BME280;7922;43.622;1.476;2023-03-22T03:54:54;99959.91;;;4.45;93.87
15646;BME280;7922;43.622;1.476;2023-03-22T03:57:19;100002.25;;;4.72;94.04
15646;BME280;7922;43.622;1.476;2023-03-22T03:59:44;100016.25;;;4.74;94.00
15646;BME280;7922;43.622;1.476;2023-03-22T04:02:10;99987.72;;;4.55;94.10
15646;BME280;7922;43.622;1.476;2023-03-22T04:04:35;99972.97;;;4.48;94.21
15646;BME280;7922;43.622;1.476;2023-03-22T04:07:03;100017.94;;;4.76;93.81
15646;BME280;7922;43.622;1.476;2023-03-22T04:09:34;100037.78;;;4.91;94.38
15646;BME280;7922;43.622;1.476;2023-03-22T04:12:00;100037.78;;;4.91;94.28
15646;BME280;7922;43.622;1.476;2023-03-22T04:14:25;100052.59;;;4.95;94.02
15646;BME280;7922;43.622;1.476;2023-03-22T04:16:51;100055.16;;;4.97;94.44
15646;BME280;7922;43.622;1.476;2023-03-22T04:19:17;99996.38;;;4.59;93.87
15646;BME280;7922;43.622;1.476;2023-03-22T04:21:42;99992.84;;;4.62;93.87
15646;BME280;7922;43.622;1.476;2023-03-22T04:24:09;99986.13;;;4.47;94.48
15646;BME280;7922;43.622;1.476;2023-03-22T04:26:34;99989.56;;;4.49;94.19
15646;BME280;7922;43.622;1.476;2023-03-22T04:29:00;100042.53;;;4.71;94.09
15646;BME280;7922;43.622;1.476;2023-03-22T04:31:25;100045.00;;;4.80;93.97
15646;BME280;7922;43.622;1.476;2023-03-22T04:33:51;100068.34;;;4.94;93.94
15646;BME280;7922;43.622;1.476;2023-03-22T04:36:17;100010.41;;;4.56;94.42
15646;BME280;7922;43.622;1.476;2023-03-22T04:38:42;99989.63;;;4.47;93.56
15646;BME280;7922;43.622;1.476;2023-03-22T04:41:08;100011.28;;;4.57;93.98
15646;BME280;7922;43.622;1.476;2023-03-22T04:43:34;99949.88;;;4.19;94.28
15646;BME280;7922;43.622;1.476;2023-03-22T04:46:00;99968.97;;;4.27;93.79
15646;BME280;7922;43.622;1.476;2023-03-22T04:48:26;100007.13;;;4.45;94.75
15646;BME280;7922;43.622;1.476;2023-03-22T04:50:51;100026.28;;;4.49;94.93
15646;BME280;7922;43.622;1.476;2023-03-22T04:53:16;100025.53;;;4.44;94.88
15646;BME280;7922;43.622;1.476;2023-03-22T04:55:42;100030.69;;;4.48;95.10
15646;BME280;7922;43.622;1.476;2023-03-22T04:58:07;99959.59;;;4.14;94.29
15646;BME280;7922;43.622;1.476;2023-03-22T05:00:32;99972.56;;;4.22;94.33
15646;BME280;7922;43.622;1.476;2023-03-22T05:02:57;100040.84;;;4.67;93.51
15646;BME280;7922;43.622;1.476;2023-03-22T05:05:23;100026.88;;;4.65;93.87
15646;BME280;7922;43.622;1.476;2023-03-22T05:07:48;100052.00;;;4.79;92.96
15646;BME280;7922;43.622;1.476;2023-03-22T05:10:13;100051.13;;;4.79;93.57
15646;BME280;7922;43.622;1.476;2023-03-22T05:12:38;100014.00;;;4.52;93.29
15646;BME280;7922;43.622;1.476;2023-03-22T05:15:04;99997.53;;;4.43;92.83
15646;BME280;7922;43.622;1.476;2023-03-22T05:17:30;99953.47;;;4.14;93.23
15646;BME280;7922;43.622;1.476;2023-03-22T05:19:55;100046.09;;;4.67;93.97
15646;BME280;7922;43.622;1.476;2023-03-22T05:22:20;99949.19;;;4.08;93.43
15646;BME280;7922;43.622;1.476;2023-03-22T05:24:45;99960.47;;;4.13;93.33
15646;BME280;7922;43.622;1.476;2023-03-22T05:27:11;100052.34;;;4.59;93.59
15646;BME280;7922;43.622;1.476;2023-03-22T05:29:36;100034.16;;;4.50;94.33
15646;BME280;7922;43.622;1.476;2023-03-22T05:32:02;100045.25;;;4.65;94.38
15646;BME280;7922;43.622;1.476;2023-03-22T05:34:28;99961.28;;;4.17;94.55
15646;BME280;7922;43.622;1.476;2023-03-22T05:36:53;100002.88;;;4.40;94.70
15646;BME280;7922;43.622;1.476;2023-03-22T05:39:18;99954.34;;;4.14;93.89
15646;BME280;7922;43.622;1.476;2023-03-22T05:41:44;99931.03;;;3.97;94.43
15646;BME280;7922;43.622;1.476;2023-03-22T05:44:10;99978.53;;;4.30;94.60
15646;BME280;7922;43.622;1.476;2023-03-22T05:46:35;99997.50;;;4.46;94.27
15646;BME280;7922;43.622;1.476;2023-03-22T05:49:00;100006.16;;;4.49;94.52
15646;BME280;7922;43.622;1.476;2023-03-22T05:51:25;99978.34;;;4.41;94.41
15646;BME280;7922;43.622;1.476;2023-03-22T05:53:51;100000.94;;;4.49;93.69
15646;BME280;7922;43.622;1.476;2023-03-22T05:56:16;99940.28;;;4.18;93.88
15646;BME280;7922;43.622;1.476;2023-03-22T05:58:42;99934.25;;;4.13;94.05
15646;BME280;7922;43.622;1.476;2023-03-22T06:01:09;100002.41;;;4.66;93.67
15646;BME280;7922;43.622;1.476;2023-03-22T06:03:35;100006.59;;;4.74;93.41
15646;BME280;7922;43.622;1.476;2023-03-22T06:06:00;99953.75;;;4.46;93.33
15646;BME280;7922;43.622;1.476;2023-03-22T06:08:25;100008.28;;;4.78;92.88
15646;BME280;7922;43.622;1.476;2023-03-22T06:10:51;99978.75;;;4.67;92.74
15646;BME280;7922;43.622;1.476;2023-03-22T06:13:17;100008.03;;;4.92;92.81
15646;BME280;7922;43.622;1.476;2023-03-22T06:15:43;99943.88;;;4.61;92.02
15646;BME280;7922;43.622;1.476;2023-03-22T06:18:08;100021.75;;;5.06;92.50
15646;BME280;7922;43.622;1.476;2023-03-22T06:20:34;100015.59;;;5.09;92.77
15646;BME280;7922;43.622;1.476;2023-03-22T06:22:59;99967.16;;;4.79;92.40
15646;BME280;7922;43.622;1.476;2023-03-22T06:25:25;100018.91;;;5.17;92.50
15646;BME280;7922;43.622;1.476;2023-03-22T06:27:50;100033.75;;;5.20;93.51
15646;BME280;7922;43.622;1.476;2023-03-22T06:30:15;100057.72;;;5.46;92.79
15646;BME280;7922;43.622;1.476;2023-03-22T06:32:40;100035.75;;;5.50;92.60
15646;BME280;7922;43.622;1.476;2023-03-22T06:35:06;100038.91;;;5.66;91.37
15646;BME280;7922;43.622;1.476;2023-03-22T06:37:32;99996.22;;;5.57;90.56
15646;BME280;7922;43.622;1.476;2023-03-22T06:39:57;100024.50;;;5.84;90.18
15646;BME280;7922;43.622;1.476;2023-03-22T06:42:22;100035.72;;;5.94;89.53
15646;BME280;7922;43.622;1.476;2023-03-22T06:44:47;100007.03;;;5.82;89.87
15646;BME280;7922;43.622;1.476;2023-03-22T06:47:13;100022.63;;;5.92;89.97
15646;BME280;7922;43.622;1.476;2023-03-22T06:49:38;100035.56;;;6.00;89.64
15646;BME280;7922;43.622;1.476;2023-03-22T06:52:04;100063.06;;;6.24;89.46
15646;BME280;7922;43.622;1.476;2023-03-22T06:54:29;100062.66;;;6.41;89.08
15646;BME280;7922;43.622;1.476;2023-03-22T06:56:54;99962.94;;;5.94;89.10
15646;BME280;7922;43.622;1.476;2023-03-22T06:59:20;99959.28;;;6.01;88.70
15646;BME280;7922;43.622;1.476;2023-03-22T07:01:45;99973.72;;;6.21;88.32
15646;BME280;7922;43.622;1.476;2023-03-22T07:04:10;100043.31;;;6.78;88.07
15646;BME280;7922;43.622;1.476;2023-03-22T07:06:35;100023.03;;;6.81;87.71
15646;BME280;7922;43.622;1.476;2023-03-22T07:09:01;99991.56;;;6.77;87.23
15646;BME280;7922;43.622;1.476;2023-03-22T07:11:26;100046.38;;;7.28;86.64
15646;BME280;7922;43.622;1.476;2023-03-22T07:13:53;100019.78;;;7.35;85.69
15646;BME280;7922;43.622;1.476;2023-03-22T07:16:18;100027.03;;;7.58;84.82
15646;BME280;7922;43.622;1.476;2023-03-22T07:18:43;100035.59;;;7.66;84.38
15646;BME280;7922;43.622;1.476;2023-03-22T07:21:09;100040.75;;;7.69;84.78
15646;BME280;7922;43.622;1.476;2023-03-22T07:23:34;99972.75;;;7.51;84.70
15646;BME280;7922;43.622;1.476;2023-03-22T07:25:59;99987.13;;;7.70;84.54
15646;BME280;7922;43.622;1.476;2023-03-22T07:28:25;100006.66;;;7.93;84.64
15646;BME280;7922;43.622;1.476;2023-03-22T07:31:02;99979.75;;;7.82;84.76
15646;BME280;7922;43.622;1.476;2023-03-22T07:33:28;100021.13;;;8.08;84.15
15646;BME280;7922;43.622;1.476;2023-03-22T07:35:53;99973.81;;;8.02;83.59
15646;BME280;7922;43.622;1.476;2023-03-22T07:38:18;100034.75;;;8.50;83.40
15646;BME280;7922;43.622;1.476;2023-03-22T07:40:44;99975.00;;;8.19;83.37
15646;BME280;7922;43.622;1.476;2023-03-22T07:43:09;100016.78;;;8.61;83.24
15646;BME280;7922;43.622;1.476;2023-03-22T07:45:34;99977.25;;;8.32;82.99
15646;BME280;7922;43.622;1.476;2023-03-22T07:47:59;99987.34;;;8.47;82.77
15646;BME280;7922;43.622;1.476;2023-03-22T07:50:25;99977.56;;;8.49;82.94
15646;BME280;7922;43.622;1.476;2023-03-22T07:52:50;100034.88;;;8.72;82.96
15646;BME280;7922;43.622;1.476;2023-03-22T07:55:15;99951.75;;;8.31;82.89
15646;BME280;7922;43.622;1.476;2023-03-22T07:57:41;99986.53;;;8.70;83.16
15646;BME280;7922;43.622;1.476;2023-03-22T08:00:07;100037.03;;;9.11;82.20
15646;BME280;7922;43.622;1.476;2023-03-22T08:02:33;99974.09;;;8.99;81.32
15646;BME280;7922;43.622;1.476;2023-03-22T08:04:58;100045.50;;;9.46;81.00
15646;BME280;7922;43.622;1.476;2023-03-22T08:07:23;100047.75;;;9.56;80.08
15646;BME280;7922;43.622;1.476;2023-03-22T08:09:48;100017.53;;;9.62;79.13
15646;BME280;7922;43.622;1.476;2023-03-22T08:12:15;100032.03;;;9.99;78.69
15646;BME280;7922;43.622;1.476;2023-03-22T08:14:41;99996.19;;;9.90;77.92
15646;BME280;7922;43.622;1.476;2023-03-22T08:17:06;99989.78;;;9.96;77.62
15646;BME280;7922;43.622;1.476;2023-03-22T08:19:32;99978.69;;;10.08;77.72
15646;BME280;7922;43.622;1.476;2023-03-22T08:21:58;100041.94;;;10.59;76.83
15646;BME280;7922;43.622;1.476;2023-03-22T08:24:23;99970.22;;;10.22;76.58
15646;BME280;7922;43.622;1.476;2023-03-22T08:26:48;100065.69;;;11.03;76.63
15646;BME280;7922;43.622;1.476;2023-03-22T08:29:14;100035.66;;;11.23;75.37
15646;BME280;7922;43.622;1.476;2023-03-22T08:31:41;100029.91;;;11.53;75.23
15646;BME280;7922;43.622;1.476;2023-03-22T08:34:06;100048.22;;;11.78;73.66
15646;BME280;7922;43.622;1.476;2023-03-22T08:36:31;100021.22;;;11.89;73.52
15646;BME280;7922;43.622;1.476;2023-03-22T08:38:56;100027.94;;;11.77;74.05
15646;BME280;7922;43.622;1.476;2023-03-22T08:41:22;99970.31;;;11.22;74.09
15646;BME280;7922;43.622;1.476;2023-03-22T08:43:47;100042.47;;;11.68;75.52
15646;BME280;7922;43.622;1.476;2023-03-22T08:46:12;99993.25;;;11.42;76.29
15646;BME280;7922;43.622;1.476;2023-03-22T08:48:37;99972.47;;;11.33;76.18
15646;BME280;7922;43.622;1.476;2023-03-22T08:51:04;100012.63;;;11.63;76.35
15646;BME280;7922;43.622;1.476;2023-03-22T08:53:29;100007.31;;;11.82;75.86
15646;BME280;7922;43.622;1.476;2023-03-22T08:55:55;100014.03;;;12.10;74.46
15646;BME280;7922;43.622;1.476;2023-03-22T08:58:20;99996.09;;;12.32;73.72
15646;BME280;7922;43.622;1.476;2023-03-22T09:00:46;99958.25;;;12.27;73.23
15646;BME280;7922;43.622;1.476;2023-03-22T09:03:11;100011.41;;;12.44;73.51
15646;BME280;7922;43.622;1.476;2023-03-22T09:05:37;100029.47;;;12.55;74.66
15646;BME280;7922;43.622;1.476;2023-03-22T09:08:03;99998.69;;;12.51;74.19
15646;BME280;7922;43.622;1.476;2023-03-22T09:10:28;100020.34;;;12.95;73.95
15646;BME280;7922;43.622;1.476;2023-03-22T09:12:54;99989.94;;;13.01;73.30
15646;BME280;7922;43.622;1.476;2023-03-22T09:15:20;100006.22;;;13.45;72.60
15646;BME280;7922;43.622;1.476;2023-03-22T09:17:45;100023.78;;;13.81;71.30
15646;BME280;7922;43.622;1.476;2023-03-22T09:20:10;100000.94;;;13.93;70.81
15646;BME280;7922;43.622;1.476;2023-03-22T09:22:36;100017.66;;;14.42;70.23
15646;BME280;7922;43.622;1.476;2023-03-22T09:25:01;99999.09;;;14.41;69.86
15646;BME280;7922;43.622;1.476;2023-03-22T09:27:26;99947.41;;;14.43;68.91
15646;BME280;7922;43.622;1.476;2023-03-22T09:29:52;100031.13;;;15.01;68.34
15646;BME280;7922;43.622;1.476;2023-03-22T09:32:17;100029.91;;;15.21;67.23
15646;BME280;7922;43.622;1.476;2023-03-22T09:34:42;100004.94;;;15.22;66.85
15646;BME280;7922;43.622;1.476;2023-03-22T09:37:08;100002.00;;;15.27;66.82
15646;BME280;7922;43.622;1.476;2023-03-22T09:39:33;99962.31;;;15.06;66.63
15646;BME280;7922;43.622;1.476;2023-03-22T09:42:01;100018.19;;;15.24;67.64
15646;BME280;7922;43.622;1.476;2023-03-22T09:44:33;100031.16;;;15.30;68.29
15646;BME280;7922;43.622;1.476;2023-03-22T09:46:59;99959.25;;;14.84;67.81
15646;BME280;7922;43.622;1.476;2023-03-22T09:49:31;100013.72;;;15.38;68.60
15646;BME280;7922;43.622;1.476;2023-03-22T09:51:58;99941.84;;;15.21;67.10
15646;BME280;7922;43.622;1.476;2023-03-22T09:54:35;99983.13;;;15.58;66.37
15646;BME280;7922;43.622;1.476;2023-03-22T09:57:09;99978.94;;;15.69;65.67
15646;BME280;7922;43.622;1.476;2023-03-22T09:59:51;99987.53;;;15.74;65.46
15646;BME280;7922;43.622;1.476;2023-03-22T10:10:33;99949.47;;;15.27;63.07
15646;BME280;7922;43.622;1.476;2023-03-22T10:13:38;100014.50;;;15.55;62.61
15646;BME280;7922;43.622;1.476;2023-03-22T10:16:10;99988.47;;;15.44;61.39
15646;BME280;7922;43.622;1.476;2023-03-22T10:18:41;99987.41;;;15.75;62.22
15646;BME280;7922;43.622;1.476;2023-03-22T10:21:10;99983.59;;;16.21;61.91
15646;BME280;7922;43.622;1.476;2023-03-22T10:26:18;99994.38;;;16.59;57.39
15646;BME280;7922;43.622;1.476;2023-03-22T10:29:08;99928.25;;;16.35;57.79
15646;BME280;7922;43.622;1.476;2023-03-22T10:31:37;99975.91;;;16.69;57.37
15646;BME280;7922;43.622;1.476;2023-03-22T10:34:13;99937.59;;;16.68;56.83
15646;BME280;7922;43.622;1.476;2023-03-22T10:36:42;99938.72;;;16.78;55.60
15646;BME280;7922;43.622;1.476;2023-03-22T10:39:37;99995.59;;;17.33;53.63
15646;BME280;7922;43.622;1.476;2023-03-22T10:42:06;99939.69;;;17.16;55.41
15646;BME280;7922;43.622;1.476;2023-03-22T10:44:42;99961.94;;;17.42;53.62
15646;BME280;7922;43.622;1.476;2023-03-22T10:47:10;99929.63;;;16.94;53.22
15646;BME280;7922;43.622;1.476;2023-03-22T10:49:40;99982.09;;;17.47;52.09
15646;BME280;7922;43.622;1.476;2023-03-22T10:52:32;99924.19;;;17.08;51.46
15646;BME280;7922;43.622;1.476;2023-03-22T10:54:59;99966.78;;;17.37;52.15
15646;BME280;7922;43.622;1.476;2023-03-22T10:57:24;99964.81;;;17.51;51.45
15646;BME280;7922;43.622;1.476;2023-03-22T10:59:51;99941.66;;;17.63;51.36
15646;BME280;7922;43.622;1.476;2023-03-22T11:02:25;99965.91;;;17.98;51.30
15646;BME280;7922;43.622;1.476;2023-03-22T11:05:03;99974.53;;;18.15;49.92
15646;BME280;7922;43.622;1.476;2023-03-22T11:07:41;99992.00;;;18.20;49.23
15646;BME280;7922;43.622;1.476;2023-03-22T11:12:36;99991.25;;;18.42;48.26
15646;BME280;7922;43.622;1.476;2023-03-22T11:15:02;99923.53;;;18.03;48.54
15646;BME280;7922;43.622;1.476;2023-03-22T11:17:29;99969.84;;;18.53;47.03
15646;BME280;7922;43.622;1.476;2023-03-22T11:19:58;99981.88;;;18.72;45.77
15646;BME280;7922;43.622;1.476;2023-03-22T11:22:45;99988.28;;;18.93;46.55
15646;BME280;7922;43.622;1.476;2023-03-22T11:25:19;99979.66;;;19.12;45.66
15646;BME280;7922;43.622;1.476;2023-03-22T11:30:28;99934.88;;;19.35;43.26
15646;BME280;7922;43.622;1.476;2023-03-22T11:33:15;99969.06;;;19.56;43.00
15646;BME280;7922;43.622;1.476;2023-03-22T11:35:44;99964.44;;;19.80;43.93
15646;BME280;7922;43.622;1.476;2023-03-22T11:38:28;99905.81;;;19.40;43.26
15646;BME280;7922;43.622;1.476;2023-03-22T11:40:59;99957.63;;;19.65;45.05
15646;BME280;7922;43.622;1.476;2023-03-22T11:43:30;99902.16;;;19.19;44.00
15646;BME280;7922;43.622;1.476;2023-03-22T11:45:57;99916.66;;;19.39;42.82
15646;BME280;7922;43.622;1.476;2023-03-22T11:48:25;99949.41;;;19.55;42.59
15646;BME280;7922;43.622;1.476;2023-03-22T11:50:53;99883.38;;;19.19;43.21
15646;BME280;7922;43.622;1.476;2023-03-22T11:53:22;99879.81;;;19.30;43.43
15646;BME280;7922;43.622;1.476;2023-03-22T11:55:50;99879.94;;;19.39;42.94
15646;BME280;7922;43.622;1.476;2023-03-22T12:00:51;99903.84;;;19.76;41.93
15646;BME280;7922;43.622;1.476;2023-03-22T12:03:22;99864.75;;;19.49;43.45
15646;BME280;7922;43.622;1.476;2023-03-22T12:05:48;99871.22;;;19.69;42.24
15646;BME280;7922;43.622;1.476;2023-03-22T12:08:25;99895.00;;;19.85;42.63
15646;BME280;7922;43.622;1.476;2023-03-22T12:11:01;99867.53;;;19.82;42.04
15646;BME280;7922;43.622;1.476;2023-03-22T12:13:43;99899.00;;;20.02;40.64
15646;BME280;7922;43.622;1.476;2023-03-22T12:16:12;99840.44;;;19.74;40.20
15646;BME280;7922;43.622;1.476;2023-03-22T12:18:54;99850.44;;;19.83;40.21
15646;BME280;7922;43.622;1.476;2023-03-22T12:21:24;99850.75;;;19.89;40.12
15646;BME280;7922;43.622;1.476;2023-03-22T12:23:50;99846.22;;;20.01;40.92
15646;BME280;7922;43.622;1.476;2023-03-22T12:26:20;99864.84;;;20.14;40.60
15646;BME280;7922;43.622;1.476;2023-03-22T12:28:54;99856.97;;;20.22;40.75
15646;BME280;7922;43.622;1.476;2023-03-22T12:31:30;99847.13;;;20.32;40.18
15646;BME280;7922;43.622;1.476;2023-03-22T12:34:02;99885.13;;;20.71;40.18
15646;BME280;7922;43.622;1.476;2023-03-22T12:36:34;99830.66;;;20.47;39.57
15646;BME280;7922;43.622;1.476;2023-03-22T12:39:02;99865.59;;;20.79;37.95
15646;BME280;7922;43.622;1.476;2023-03-22T12:41:36;99848.59;;;20.78;38.38
15646;BME280;7922;43.622;1.476;2023-03-22T12:44:10;99816.63;;;20.85;38.65
15646;BME280;7922;43.622;1.476;2023-03-22T12:46:47;99817.03;;;21.21;37.89
15646;BME280;7922;43.622;1.476;2023-03-22T12:51:47;99826.38;;;21.67;36.19
15646;BME280;7922;43.622;1.476;2023-03-22T12:54:18;99838.75;;;21.79;37.88
15646;BME280;7922;43.622;1.476;2023-03-22T12:56:46;99840.00;;;21.65;37.06
15646;BME280;7922;43.622;1.476;2023-03-22T12:59:30;99833.88;;;21.63;36.35
15646;BME280;7922;43.622;1.476;2023-03-22T13:02:30;99793.97;;;21.37;35.40
15646;BME280;7922;43.622;1.476;2023-03-22T13:04:58;99800.41;;;21.46;35.56
15646;BME280;7922;43.622;1.476;2023-03-22T13:09:52;99821.41;;;21.81;36.71
15646;BME280;7922;43.622;1.476;2023-03-22T13:23:24;99813.91;;;21.95;34.16
15646;BME280;7922;43.622;1.476;2023-03-22T13:35:45;99797.66;;;22.53;31.81
15646;BME280;7922;43.622;1.476;2023-03-22T13:38:26;99806.50;;;22.45;33.03
15646;BME280;7922;43.622;1.476;2023-03-22T13:43:43;99784.97;;;22.16;33.04
15646;BME280;7922;43.622;1.476;2023-03-22T13:51:11;99762.50;;;22.06;31.62
15646;BME280;7922;43.622;1.476;2023-03-22T13:53:40;99765.06;;;22.27;32.09
15646;BME280;7922;43.622;1.476;2023-03-22T13:56:10;99779.16;;;22.58;31.45
15646;BME280;7922;43.622;1.476;2023-03-22T14:01:16;99772.13;;;22.38;32.12
15646;BME280;7922;43.622;1.476;2023-03-22T14:03:48;99758.13;;;22.62;32.55
15646;BME280;7922;43.622;1.476;2023-03-22T14:06:20;99746.44;;;22.71;32.39
15646;BME280;7922;43.622;1.476;2023-03-22T14:08:50;99766.84;;;22.55;31.93
15646;BME280;7922;43.622;1.476;2023-03-22T14:14:08;99762.16;;;22.85;32.67
15646;BME280;7922;43.622;1.476;2023-03-22T14:16:42;99714.50;;;22.66;33.63
15646;BME280;7922;43.622;1.476;2023-03-22T14:19:16;99745.50;;;22.99;33.27
15646;BME280;7922;43.622;1.476;2023-03-22T14:21:47;99763.69;;;22.97;31.65
15646;BME280;7922;43.622;1.476;2023-03-22T14:24:15;99745.31;;;22.73;31.13
15646;BME280;7922;43.622;1.476;2023-03-22T14:26:44;99692.44;;;22.71;31.42
15646;BME280;7922;43.622;1.476;2023-03-22T14:29:20;99753.22;;;23.12;31.12
15646;BME280;7922;43.622;1.476;2023-03-22T14:31:54;99751.06;;;22.88;30.71
15646;BME280;7922;43.622;1.476;2023-03-22T14:34:21;99749.59;;;23.03;31.91
15646;BME280;7922;43.622;1.476;2023-03-22T14:36:47;99675.16;;;22.54;30.33
15646;BME280;7922;43.622;1.476;2023-03-22T14:39:32;99746.97;;;23.12;29.83
15646;BME280;7922;43.622;1.476;2023-03-22T14:42:04;99732.66;;;23.01;29.33
15646;BME280;7922;43.622;1.476;2023-03-22T14:44:40;99683.88;;;22.75;29.09
15646;BME280;7922;43.622;1.476;2023-03-22T14:47:18;99738.94;;;23.20;28.24
15646;BME280;7922;43.622;1.476;2023-03-22T14:49:46;99693.78;;;22.85;28.28